sensor_id;sensor_type;location;lat;lon;timestamp;P1;durP1;ratioP1;P2;durP2;ratioP2
36651;SDS011;53334;51.976;20.144;2023-05-13T00:00:27;3.92;;;3.33;;
36651;SDS011;53334;51.976;20.144;2023-05-13T00:03:00;5.13;;;4.05;;
36651;SDS011;53334;51.976;20.144;2023-05-13T00:05:35;3.60;;;3.25;;
36651;SDS011;53334;51.976;20.144;2023-05-13T00:08:09;4.38;;;3.95;;
36651;SDS011;53334;51.976;20.144;2023-05-13T00:10:42;3.40;;;3.10;;
36651;SDS011;53334;51.976;20.144;2023-05-13T00:13:16;4.90;;;3.33;;
36651;SDS011;53334;51.976;20.144;2023-05-13T00:18:59;3.50;;;3.20;;
36651;SDS011;53334;51.976;20.144;2023-05-13T00:21:34;4.03;;;3.17;;
36651;SDS011;53334;51.976;20.144;2023-05-13T00:24:07;4.68;;;3.58;;
36651;SDS011;53334;51.976;20.144;2023-05-13T00:26:40;4.25;;;3.85;;
36651;SDS011;53334;51.976;20.144;2023-05-13T00:29:14;4.55;;;3.70;;
36651;SDS011;53334;51.976;20.144;2023-05-13T00:31:47;3.50;;;3.10;;
36651;SDS011;53334;51.976;20.144;2023-05-13T00:34:20;5.03;;;3.70;;
36651;SDS011;53334;51.976;20.144;2023-05-13T00:36:56;4.75;;;3.45;;
36651;SDS011;53334;51.976;20.144;2023-05-13T00:39:29;5.47;;;3.72;;
36651;SDS011;53334;51.976;20.144;2023-05-13T00:42:02;4.85;;;3.83;;
36651;SDS011;53334;51.976;20.144;2023-05-13T00:44:36;4.70;;;3.65;;
36651;SDS011;53334;51.976;20.144;2023-05-13T00:47:10;4.32;;;3.38;;
36651;SDS011;53334;51.976;20.144;2023-05-13T00:49:43;4.45;;;3.38;;
36651;SDS011;53334;51.976;20.144;2023-05-13T00:52:18;6.70;;;4.15;;
36651;SDS011;53334;51.976;20.144;2023-05-13T00:54:51;4.38;;;3.33;;
36651;SDS011;53334;51.976;20.144;2023-05-13T00:57:25;5.15;;;3.75;;
36651;SDS011;53334;51.976;20.144;2023-05-13T00:59:58;3.83;;;2.97;;
36651;SDS011;53334;51.976;20.144;2023-05-13T01:02:33;4.13;;;3.55;;
36651;SDS011;53334;51.976;20.144;2023-05-13T01:05:11;4.00;;;3.30;;
36651;SDS011;53334;51.976;20.144;2023-05-13T01:07:57;4.28;;;3.28;;
36651;SDS011;53334;51.976;20.144;2023-05-13T01:10:37;4.45;;;3.45;;
36651;SDS011;53334;51.976;20.144;2023-05-13T01:13:16;4.25;;;3.72;;
36651;SDS011;53334;51.976;20.144;2023-05-13T01:15:55;4.30;;;3.85;;
36651;SDS011;53334;51.976;20.144;2023-05-13T01:18:35;5.30;;;3.63;;
36651;SDS011;53334;51.976;20.144;2023-05-13T01:21:10;4.50;;;3.55;;
36651;SDS011;53334;51.976;20.144;2023-05-13T01:23:45;4.55;;;4.10;;
36651;SDS011;53334;51.976;20.144;2023-05-13T01:26:18;4.60;;;3.40;;
36651;SDS011;53334;51.976;20.144;2023-05-13T01:28:52;4.30;;;3.42;;
36651;SDS011;53334;51.976;20.144;2023-05-13T01:31:26;4.10;;;3.70;;
36651;SDS011;53334;51.976;20.144;2023-05-13T01:34:01;4.07;;;3.63;;
36651;SDS011;53334;51.976;20.144;2023-05-13T01:36:36;5.32;;;4.10;;
36651;SDS011;53334;51.976;20.144;2023-05-13T01:39:12;4.65;;;3.65;;
36651;SDS011;53334;51.976;20.144;2023-05-13T01:41:46;3.70;;;3.28;;
36651;SDS011;53334;51.976;20.144;2023-05-13T01:44:19;4.00;;;3.50;;
36651;SDS011;53334;51.976;20.144;2023-05-13T01:46:52;4.18;;;3.78;;
36651;SDS011;53334;51.976;20.144;2023-05-13T01:49:26;4.60;;;3.45;;
36651;SDS011;53334;51.976;20.144;2023-05-13T01:51:59;4.95;;;4.38;;
36651;SDS011;53334;51.976;20.144;2023-05-13T01:54:33;3.78;;;3.40;;
36651;SDS011;53334;51.976;20.144;2023-05-13T01:57:12;4.18;;;3.25;;
36651;SDS011;53334;51.976;20.144;2023-05-13T01:59:45;4.97;;;4.13;;
36651;SDS011;53334;51.976;20.144;2023-05-13T02:02:18;5.18;;;3.78;;
36651;SDS011;53334;51.976;20.144;2023-05-13T02:04:52;5.25;;;3.80;;
36651;SDS011;53334;51.976;20.144;2023-05-13T02:07:25;4.13;;;3.72;;
36651;SDS011;53334;51.976;20.144;2023-05-13T02:10:00;5.18;;;4.68;;
36651;SDS011;53334;51.976;20.144;2023-05-13T02:12:35;6.28;;;4.00;;
36651;SDS011;53334;51.976;20.144;2023-05-13T02:15:09;4.43;;;3.83;;
36651;SDS011;53334;51.976;20.144;2023-05-13T02:20:16;5.38;;;4.10;;
36651;SDS011;53334;51.976;20.144;2023-05-13T02:22:50;6.03;;;3.78;;
36651;SDS011;53334;51.976;20.144;2023-05-13T02:25:25;5.75;;;4.38;;
36651;SDS011;53334;51.976;20.144;2023-05-13T02:27:58;4.80;;;3.72;;
36651;SDS011;53334;51.976;20.144;2023-05-13T02:30:32;4.80;;;3.67;;
36651;SDS011;53334;51.976;20.144;2023-05-13T02:33:05;4.43;;;4.03;;
36651;SDS011;53334;51.976;20.144;2023-05-13T02:35:38;5.05;;;4.07;;
36651;SDS011;53334;51.976;20.144;2023-05-13T02:38:12;5.05;;;3.90;;
36651;SDS011;53334;51.976;20.144;2023-05-13T02:40:47;5.57;;;4.13;;
36651;SDS011;53334;51.976;20.144;2023-05-13T02:43:20;3.83;;;3.42;;
36651;SDS011;53334;51.976;20.144;2023-05-13T02:46:01;5.85;;;4.38;;
36651;SDS011;53334;51.976;20.144;2023-05-13T02:48:35;5.20;;;3.60;;
36651;SDS011;53334;51.976;20.144;2023-05-13T02:51:09;4.75;;;4.13;;
36651;SDS011;53334;51.976;20.144;2023-05-13T02:53:42;5.13;;;4.40;;
36651;SDS011;53334;51.976;20.144;2023-05-13T02:56:17;5.93;;;4.60;;
36651;SDS011;53334;51.976;20.144;2023-05-13T02:58:51;5.47;;;4.15;;
36651;SDS011;53334;51.976;20.144;2023-05-13T03:01:24;5.68;;;4.35;;
36651;SDS011;53334;51.976;20.144;2023-05-13T03:03:58;6.32;;;4.72;;
36651;SDS011;53334;51.976;20.144;2023-05-13T03:06:31;4.50;;;3.78;;
36651;SDS011;53334;51.976;20.144;2023-05-13T03:09:04;6.25;;;3.80;;
36651;SDS011;53334;51.976;20.144;2023-05-13T03:11:39;7.13;;;4.75;;
36651;SDS011;53334;51.976;20.144;2023-05-13T03:14:12;5.57;;;3.85;;
36651;SDS011;53334;51.976;20.144;2023-05-13T03:16:45;6.80;;;4.60;;
36651;SDS011;53334;51.976;20.144;2023-05-13T03:19:18;5.50;;;3.95;;
36651;SDS011;53334;51.976;20.144;2023-05-13T03:21:52;6.53;;;5.32;;
36651;SDS011;53334;51.976;20.144;2023-05-13T03:24:25;5.15;;;4.53;;
36651;SDS011;53334;51.976;20.144;2023-05-13T03:27:00;5.35;;;4.05;;
36651;SDS011;53334;51.976;20.144;2023-05-13T03:29:34;4.70;;;4.03;;
36651;SDS011;53334;51.976;20.144;2023-05-13T03:32:07;5.78;;;4.78;;
36651;SDS011;53334;51.976;20.144;2023-05-13T03:34:41;6.45;;;4.45;;
36651;SDS011;53334;51.976;20.144;2023-05-13T03:37:14;4.90;;;4.35;;
36651;SDS011;53334;51.976;20.144;2023-05-13T03:39:47;4.60;;;4.10;;
36651;SDS011;53334;51.976;20.144;2023-05-13T03:42:22;4.82;;;4.00;;
36651;SDS011;53334;51.976;20.144;2023-05-13T03:44:59;5.40;;;4.20;;
36651;SDS011;53334;51.976;20.144;2023-05-13T03:47:32;5.55;;;4.15;;
36651;SDS011;53334;51.976;20.144;2023-05-13T03:50:10;5.50;;;4.53;;
36651;SDS011;53334;51.976;20.144;2023-05-13T03:52:46;4.28;;;3.88;;
36651;SDS011;53334;51.976;20.144;2023-05-13T03:55:22;6.40;;;4.50;;
36651;SDS011;53334;51.976;20.144;2023-05-13T03:57:57;4.80;;;4.30;;
36651;SDS011;53334;51.976;20.144;2023-05-13T04:00:30;4.97;;;4.13;;
36651;SDS011;53334;51.976;20.144;2023-05-13T04:03:04;5.82;;;4.40;;
36651;SDS011;53334;51.976;20.144;2023-05-13T04:05:37;4.75;;;4.32;;
36651;SDS011;53334;51.976;20.144;2023-05-13T04:08:11;6.22;;;4.78;;
36651;SDS011;53334;51.976;20.144;2023-05-13T04:10:44;5.13;;;4.43;;
36651;SDS011;53334;51.976;20.144;2023-05-13T04:13:19;4.40;;;3.97;;
36651;SDS011;53334;51.976;20.144;2023-05-13T04:15:53;6.30;;;4.45;;
36651;SDS011;53334;51.976;20.144;2023-05-13T04:18:27;5.97;;;4.47;;
36651;SDS011;53334;51.976;20.144;2023-05-13T04:21:04;5.47;;;3.92;;
36651;SDS011;53334;51.976;20.144;2023-05-13T04:23:38;5.90;;;4.78;;
36651;SDS011;53334;51.976;20.144;2023-05-13T04:26:11;5.97;;;4.60;;
36651;SDS011;53334;51.976;20.144;2023-05-13T04:28:46;4.32;;;3.92;;
36651;SDS011;53334;51.976;20.144;2023-05-13T04:31:19;4.00;;;3.53;;
36651;SDS011;53334;51.976;20.144;2023-05-13T04:33:52;6.43;;;5.00;;
36651;SDS011;53334;51.976;20.144;2023-05-13T04:36:26;6.20;;;4.15;;
36651;SDS011;53334;51.976;20.144;2023-05-13T04:39:00;4.72;;;4.22;;
36651;SDS011;53334;51.976;20.144;2023-05-13T04:41:33;5.07;;;4.13;;
36651;SDS011;53334;51.976;20.144;2023-05-13T04:44:09;6.75;;;4.68;;
36651;SDS011;53334;51.976;20.144;2023-05-13T04:46:42;5.03;;;4.05;;
36651;SDS011;53334;51.976;20.144;2023-05-13T04:49:15;6.43;;;4.72;;
36651;SDS011;53334;51.976;20.144;2023-05-13T04:51:49;4.90;;;4.05;;
36651;SDS011;53334;51.976;20.144;2023-05-13T04:54:23;4.55;;;4.15;;
36651;SDS011;53334;51.976;20.144;2023-05-13T04:56:57;4.90;;;4.35;;
36651;SDS011;53334;51.976;20.144;2023-05-13T04:59:31;4.63;;;3.65;;
36651;SDS011;53334;51.976;20.144;2023-05-13T05:02:05;4.60;;;4.13;;
36651;SDS011;53334;51.976;20.144;2023-05-13T05:04:39;7.28;;;3.72;;
36651;SDS011;53334;51.976;20.144;2023-05-13T05:07:16;6.13;;;4.88;;
36651;SDS011;53334;51.976;20.144;2023-05-13T05:09:50;5.72;;;4.47;;
36651;SDS011;53334;51.976;20.144;2023-05-13T05:12:23;5.22;;;3.67;;
36651;SDS011;53334;51.976;20.144;2023-05-13T05:14:58;4.40;;;4.00;;
36651;SDS011;53334;51.976;20.144;2023-05-13T05:17:32;4.72;;;3.88;;
36651;SDS011;53334;51.976;20.144;2023-05-13T05:20:07;6.25;;;4.90;;
36651;SDS011;53334;51.976;20.144;2023-05-13T05:22:42;5.15;;;4.25;;
36651;SDS011;53334;51.976;20.144;2023-05-13T05:25:16;5.78;;;4.35;;
36651;SDS011;53334;51.976;20.144;2023-05-13T05:27:50;4.93;;;4.10;;
36651;SDS011;53334;51.976;20.144;2023-05-13T05:30:25;4.90;;;4.40;;
36651;SDS011;53334;51.976;20.144;2023-05-13T05:33:03;5.10;;;4.60;;
36651;SDS011;53334;51.976;20.144;2023-05-13T05:35:39;4.43;;;3.90;;
36651;SDS011;53334;51.976;20.144;2023-05-13T05:38:16;5.85;;;4.78;;
36651;SDS011;53334;51.976;20.144;2023-05-13T05:40:50;5.07;;;4.55;;
36651;SDS011;53334;51.976;20.144;2023-05-13T05:43:23;3.78;;;3.38;;
36651;SDS011;53334;51.976;20.144;2023-05-13T05:45:58;5.38;;;4.20;;
36651;SDS011;53334;51.976;20.144;2023-05-13T05:51:07;5.80;;;4.50;;
36651;SDS011;53334;51.976;20.144;2023-05-13T05:53:40;3.97;;;3.28;;
36651;SDS011;53334;51.976;20.144;2023-05-13T05:56:16;4.93;;;4.25;;
36651;SDS011;53334;51.976;20.144;2023-05-13T05:58:50;4.53;;;3.97;;
36651;SDS011;53334;51.976;20.144;2023-05-13T06:01:24;4.97;;;4.00;;
36651;SDS011;53334;51.976;20.144;2023-05-13T06:04:00;5.75;;;4.18;;
36651;SDS011;53334;51.976;20.144;2023-05-13T06:09:09;4.32;;;3.92;;
36651;SDS011;53334;51.976;20.144;2023-05-13T06:11:42;4.18;;;3.60;;
36651;SDS011;53334;51.976;20.144;2023-05-13T06:14:15;5.15;;;4.20;;
36651;SDS011;53334;51.976;20.144;2023-05-13T06:16:50;5.57;;;3.72;;
36651;SDS011;53334;51.976;20.144;2023-05-13T06:19:26;7.55;;;4.43;;
36651;SDS011;53334;51.976;20.144;2023-05-13T06:22:01;5.60;;;4.30;;
36651;SDS011;53334;51.976;20.144;2023-05-13T06:24:35;4.88;;;4.30;;
36651;SDS011;53334;51.976;20.144;2023-05-13T06:27:10;5.35;;;4.25;;
36651;SDS011;53334;51.976;20.144;2023-05-13T06:29:46;4.88;;;4.15;;
36651;SDS011;53334;51.976;20.144;2023-05-13T06:32:21;4.28;;;3.83;;
36651;SDS011;53334;51.976;20.144;2023-05-13T06:34:54;7.57;;;4.25;;
36651;SDS011;53334;51.976;20.144;2023-05-13T06:40:01;4.63;;;4.03;;
36651;SDS011;53334;51.976;20.144;2023-05-13T06:42:39;4.95;;;3.95;;
36651;SDS011;53334;51.976;20.144;2023-05-13T06:45:23;5.28;;;3.80;;
36651;SDS011;53334;51.976;20.144;2023-05-13T06:47:58;5.65;;;3.72;;
36651;SDS011;53334;51.976;20.144;2023-05-13T06:50:31;4.63;;;3.95;;
36651;SDS011;53334;51.976;20.144;2023-05-13T06:53:04;4.90;;;3.83;;
36651;SDS011;53334;51.976;20.144;2023-05-13T06:55:38;4.82;;;4.10;;
36651;SDS011;53334;51.976;20.144;2023-05-13T06:58:13;5.50;;;3.70;;
36651;SDS011;53334;51.976;20.144;2023-05-13T07:00:46;7.60;;;4.40;;
36651;SDS011;53334;51.976;20.144;2023-05-13T07:03:21;4.60;;;3.90;;
36651;SDS011;53334;51.976;20.144;2023-05-13T07:05:54;3.95;;;3.50;;
36651;SDS011;53334;51.976;20.144;2023-05-13T07:08:27;4.25;;;3.72;;
36651;SDS011;53334;51.976;20.144;2023-05-13T07:11:01;5.13;;;4.13;;
36651;SDS011;53334;51.976;20.144;2023-05-13T07:13:34;4.70;;;3.97;;
36651;SDS011;53334;51.976;20.144;2023-05-13T07:16:08;5.18;;;4.32;;
36651;SDS011;53334;51.976;20.144;2023-05-13T07:18:43;6.65;;;4.55;;
36651;SDS011;53334;51.976;20.144;2023-05-13T07:21:16;4.53;;;3.70;;
36651;SDS011;53334;51.976;20.144;2023-05-13T07:23:50;5.18;;;3.50;;
36651;SDS011;53334;51.976;20.144;2023-05-13T07:26:23;3.97;;;3.25;;
36651;SDS011;53334;51.976;20.144;2023-05-13T07:28:56;4.10;;;3.70;;
36651;SDS011;53334;51.976;20.144;2023-05-13T07:31:31;4.15;;;3.63;;
36651;SDS011;53334;51.976;20.144;2023-05-13T07:36:39;5.30;;;3.90;;
36651;SDS011;53334;51.976;20.144;2023-05-13T07:39:12;4.22;;;3.65;;
36651;SDS011;53334;51.976;20.144;2023-05-13T07:41:45;4.85;;;3.53;;
36651;SDS011;53334;51.976;20.144;2023-05-13T07:44:19;4.63;;;3.42;;
36651;SDS011;53334;51.976;20.144;2023-05-13T07:46:52;5.63;;;5.00;;
36651;SDS011;53334;51.976;20.144;2023-05-13T07:49:27;4.53;;;3.72;;
36651;SDS011;53334;51.976;20.144;2023-05-13T07:52:00;4.35;;;3.53;;
36651;SDS011;53334;51.976;20.144;2023-05-13T07:54:34;5.18;;;3.95;;
36651;SDS011;53334;51.976;20.144;2023-05-13T07:57:07;4.60;;;4.20;;
36651;SDS011;53334;51.976;20.144;2023-05-13T07:59:40;4.15;;;3.75;;
36651;SDS011;53334;51.976;20.144;2023-05-13T08:02:15;5.15;;;3.50;;
36651;SDS011;53334;51.976;20.144;2023-05-13T08:04:50;4.57;;;3.25;;
36651;SDS011;53334;51.976;20.144;2023-05-13T08:07:23;5.00;;;4.00;;
36651;SDS011;53334;51.976;20.144;2023-05-13T08:09:56;4.93;;;4.00;;
36651;SDS011;53334;51.976;20.144;2023-05-13T08:12:30;9.68;;;3.53;;
36651;SDS011;53334;51.976;20.144;2023-05-13T08:15:03;4.40;;;3.65;;
36651;SDS011;53334;51.976;20.144;2023-05-13T08:17:37;3.80;;;3.20;;
36651;SDS011;53334;51.976;20.144;2023-05-13T08:20:12;4.25;;;3.83;;
36651;SDS011;53334;51.976;20.144;2023-05-13T08:22:45;3.88;;;3.35;;
36651;SDS011;53334;51.976;20.144;2023-05-13T08:25:19;3.53;;;3.08;;
36651;SDS011;53334;51.976;20.144;2023-05-13T08:27:53;3.53;;;3.22;;
36651;SDS011;53334;51.976;20.144;2023-05-13T08:30:26;3.85;;;3.33;;
36651;SDS011;53334;51.976;20.144;2023-05-13T08:32:59;3.88;;;3.47;;
36651;SDS011;53334;51.976;20.144;2023-05-13T08:35:34;3.47;;;3.17;;
36651;SDS011;53334;51.976;20.144;2023-05-13T08:38:07;4.63;;;3.72;;
36651;SDS011;53334;51.976;20.144;2023-05-13T08:40:40;3.97;;;3.67;;
36651;SDS011;53334;51.976;20.144;2023-05-13T08:43:14;4.20;;;3.80;;
36651;SDS011;53334;51.976;20.144;2023-05-13T08:48:24;3.30;;;3.00;;
36651;SDS011;53334;51.976;20.144;2023-05-13T08:50:58;4.18;;;3.30;;
36651;SDS011;53334;51.976;20.144;2023-05-13T08:53:33;4.07;;;3.15;;
36651;SDS011;53334;51.976;20.144;2023-05-13T08:56:07;3.88;;;3.47;;
36651;SDS011;53334;51.976;20.144;2023-05-13T08:58:41;4.07;;;3.22;;
36651;SDS011;53334;51.976;20.144;2023-05-13T09:01:14;4.93;;;3.97;;
36651;SDS011;53334;51.976;20.144;2023-05-13T09:03:51;3.95;;;3.35;;
36651;SDS011;53334;51.976;20.144;2023-05-13T09:06:30;5.88;;;3.47;;
36651;SDS011;53334;51.976;20.144;2023-05-13T09:09:04;4.00;;;3.40;;
36651;SDS011;53334;51.976;20.144;2023-05-13T09:11:37;3.97;;;3.58;;
36651;SDS011;53334;51.976;20.144;2023-05-13T09:14:13;3.55;;;3.10;;
36651;SDS011;53334;51.976;20.144;2023-05-13T09:16:50;3.60;;;2.80;;
36651;SDS011;53334;51.976;20.144;2023-05-13T09:19:27;3.67;;;3.25;;
36651;SDS011;53334;51.976;20.144;2023-05-13T09:22:02;3.65;;;3.00;;
36651;SDS011;53334;51.976;20.144;2023-05-13T09:24:35;4.00;;;3.47;;
36651;SDS011;53334;51.976;20.144;2023-05-13T09:27:08;4.35;;;3.70;;
36651;SDS011;53334;51.976;20.144;2023-05-13T09:29:42;3.85;;;3.53;;
36651;SDS011;53334;51.976;20.144;2023-05-13T09:32:15;3.83;;;3.25;;
36651;SDS011;53334;51.976;20.144;2023-05-13T09:34:48;3.70;;;3.03;;
36651;SDS011;53334;51.976;20.144;2023-05-13T09:37:23;3.38;;;3.03;;
36651;SDS011;53334;51.976;20.144;2023-05-13T09:39:56;3.85;;;3.47;;
36651;SDS011;53334;51.976;20.144;2023-05-13T09:42:30;4.00;;;3.05;;
36651;SDS011;53334;51.976;20.144;2023-05-13T09:45:03;3.53;;;3.22;;
36651;SDS011;53334;51.976;20.144;2023-05-13T09:47:38;3.45;;;3.13;;
36651;SDS011;53334;51.976;20.144;2023-05-13T09:50:12;3.05;;;2.75;;
36651;SDS011;53334;51.976;20.144;2023-05-13T09:52:47;3.58;;;3.10;;
36651;SDS011;53334;51.976;20.144;2023-05-13T09:55:21;3.45;;;3.15;;
36651;SDS011;53334;51.976;20.144;2023-05-13T09:57:54;4.18;;;3.63;;
36651;SDS011;53334;51.976;20.144;2023-05-13T10:00:27;4.25;;;3.53;;
36651;SDS011;53334;51.976;20.144;2023-05-13T10:03:04;3.45;;;3.15;;
36651;SDS011;53334;51.976;20.144;2023-05-13T10:05:38;3.15;;;2.85;;
36651;SDS011;53334;51.976;20.144;2023-05-13T10:08:13;4.28;;;3.28;;
36651;SDS011;53334;51.976;20.144;2023-05-13T10:10:49;4.28;;;3.10;;
36651;SDS011;53334;51.976;20.144;2023-05-13T10:13:25;3.30;;;3.00;;
36651;SDS011;53334;51.976;20.144;2023-05-13T10:16:02;4.65;;;3.40;;
36651;SDS011;53334;51.976;20.144;2023-05-13T10:21:10;3.53;;;3.17;;
36651;SDS011;53334;51.976;20.144;2023-05-13T10:23:45;3.50;;;3.20;;
36651;SDS011;53334;51.976;20.144;2023-05-13T10:26:22;3.33;;;3.03;;
36651;SDS011;53334;51.976;20.144;2023-05-13T10:31:29;3.30;;;2.97;;
36651;SDS011;53334;51.976;20.144;2023-05-13T10:34:03;4.38;;;3.63;;
36651;SDS011;53334;51.976;20.144;2023-05-13T10:36:40;4.30;;;3.47;;
36651;SDS011;53334;51.976;20.144;2023-05-13T10:42:39;3.17;;;2.72;;
36651;SDS011;53334;51.976;20.144;2023-05-13T10:45:14;3.78;;;3.10;;
36651;SDS011;53334;51.976;20.144;2023-05-13T10:47:48;3.40;;;3.10;;
36651;SDS011;53334;51.976;20.144;2023-05-13T10:50:24;3.17;;;2.88;;
36651;SDS011;53334;51.976;20.144;2023-05-13T10:52:57;3.80;;;3.08;;
36651;SDS011;53334;51.976;20.144;2023-05-13T10:55:32;3.38;;;2.85;;
36651;SDS011;53334;51.976;20.144;2023-05-13T10:58:15;4.47;;;2.92;;
36651;SDS011;53334;51.976;20.144;2023-05-13T11:00:52;3.70;;;2.97;;
36651;SDS011;53334;51.976;20.144;2023-05-13T11:03:50;2.80;;;2.60;;
36651;SDS011;53334;51.976;20.144;2023-05-13T11:06:28;2.85;;;2.55;;
36651;SDS011;53334;51.976;20.144;2023-05-13T11:09:05;3.25;;;2.95;;
36651;SDS011;53334;51.976;20.144;2023-05-13T11:11:41;3.50;;;3.10;;
36651;SDS011;53334;51.976;20.144;2023-05-13T11:14:19;3.65;;;2.67;;
36651;SDS011;53334;51.976;20.144;2023-05-13T11:16:53;2.97;;;2.67;;
36651;SDS011;53334;51.976;20.144;2023-05-13T11:19:44;3.80;;;3.30;;
36651;SDS011;53334;51.976;20.144;2023-05-13T11:22:18;3.28;;;2.97;;
36651;SDS011;53334;51.976;20.144;2023-05-13T11:25:02;3.00;;;2.67;;
36651;SDS011;53334;51.976;20.144;2023-05-13T11:27:38;3.38;;;2.85;;
36651;SDS011;53334;51.976;20.144;2023-05-13T11:30:20;4.28;;;3.88;;
36651;SDS011;53334;51.976;20.144;2023-05-13T11:32:55;3.00;;;2.80;;
36651;SDS011;53334;51.976;20.144;2023-05-13T11:35:30;3.78;;;3.13;;
36651;SDS011;53334;51.976;20.144;2023-05-13T11:38:04;3.00;;;2.70;;
36651;SDS011;53334;51.976;20.144;2023-05-13T11:40:37;3.00;;;2.70;;
36651;SDS011;53334;51.976;20.144;2023-05-13T11:43:12;3.17;;;2.65;;
36651;SDS011;53334;51.976;20.144;2023-05-13T11:45:51;3.70;;;3.13;;
36651;SDS011;53334;51.976;20.144;2023-05-13T11:48:26;2.75;;;2.42;;
36651;SDS011;53334;51.976;20.144;2023-05-13T11:51:00;3.17;;;2.85;;
36651;SDS011;53334;51.976;20.144;2023-05-13T11:53:33;4.03;;;3.03;;
36651;SDS011;53334;51.976;20.144;2023-05-13T11:56:07;3.65;;;2.95;;
36651;SDS011;53334;51.976;20.144;2023-05-13T11:58:44;2.88;;;2.53;;
36651;SDS011;53334;51.976;20.144;2023-05-13T12:01:17;2.78;;;2.55;;
36651;SDS011;53334;51.976;20.144;2023-05-13T12:03:59;2.85;;;2.60;;
36651;SDS011;53334;51.976;20.144;2023-05-13T12:06:33;3.30;;;2.90;;
36651;SDS011;53334;51.976;20.144;2023-05-13T12:09:06;2.92;;;2.50;;
36651;SDS011;53334;51.976;20.144;2023-05-13T12:11:40;2.83;;;2.42;;
36651;SDS011;53334;51.976;20.144;2023-05-13T12:14:15;3.70;;;3.15;;
36651;SDS011;53334;51.976;20.144;2023-05-13T12:16:48;2.78;;;2.58;;
36651;SDS011;53334;51.976;20.144;2023-05-13T12:19:22;3.17;;;2.88;;
36651;SDS011;53334;51.976;20.144;2023-05-13T12:21:57;2.80;;;2.55;;
36651;SDS011;53334;51.976;20.144;2023-05-13T12:24:31;2.83;;;2.42;;
36651;SDS011;53334;51.976;20.144;2023-05-13T12:27:05;3.00;;;2.58;;
36651;SDS011;53334;51.976;20.144;2023-05-13T12:29:43;3.67;;;3.13;;
36651;SDS011;53334;51.976;20.144;2023-05-13T12:32:16;2.72;;;2.50;;
36651;SDS011;53334;51.976;20.144;2023-05-13T12:34:50;2.92;;;2.63;;
36651;SDS011;53334;51.976;20.144;2023-05-13T12:37:23;2.97;;;2.60;;
36651;SDS011;53334;51.976;20.144;2023-05-13T12:40:07;3.30;;;3.00;;
36651;SDS011;53334;51.976;20.144;2023-05-13T12:42:43;2.60;;;2.40;;
36651;SDS011;53334;51.976;20.144;2023-05-13T12:45:18;2.97;;;2.50;;
36651;SDS011;53334;51.976;20.144;2023-05-13T12:47:52;3.08;;;2.78;;
36651;SDS011;53334;51.976;20.144;2023-05-13T12:50:27;3.28;;;2.50;;
36651;SDS011;53334;51.976;20.144;2023-05-13T12:53:00;3.08;;;2.60;;
36651;SDS011;53334;51.976;20.144;2023-05-13T12:55:33;3.58;;;2.60;;
36651;SDS011;53334;51.976;20.144;2023-05-13T12:58:11;3.42;;;3.13;;
36651;SDS011;53334;51.976;20.144;2023-05-13T13:03:19;3.05;;;2.78;;
36651;SDS011;53334;51.976;20.144;2023-05-13T13:05:55;3.30;;;3.00;;
36651;SDS011;53334;51.976;20.144;2023-05-13T13:08:29;3.30;;;2.95;;
36651;SDS011;53334;51.976;20.144;2023-05-13T13:11:26;2.50;;;2.30;;
36651;SDS011;53334;51.976;20.144;2023-05-13T13:14:00;2.67;;;2.47;;
36651;SDS011;53334;51.976;20.144;2023-05-13T13:16:34;3.08;;;2.78;;
36651;SDS011;53334;51.976;20.144;2023-05-13T13:19:08;2.75;;;2.22;;
36651;SDS011;53334;51.976;20.144;2023-05-13T13:21:41;3.17;;;2.72;;
36651;SDS011;53334;51.976;20.144;2023-05-13T13:24:14;3.40;;;2.85;;
36651;SDS011;53334;51.976;20.144;2023-05-13T13:26:48;2.88;;;2.53;;
36651;SDS011;53334;51.976;20.144;2023-05-13T13:29:21;4.47;;;2.55;;
36651;SDS011;53334;51.976;20.144;2023-05-13T13:34:29;2.85;;;2.33;;
36651;SDS011;53334;51.976;20.144;2023-05-13T13:37:03;2.85;;;2.55;;
36651;SDS011;53334;51.976;20.144;2023-05-13T13:39:36;2.88;;;2.53;;
36651;SDS011;53334;51.976;20.144;2023-05-13T13:42:09;3.08;;;2.78;;
36651;SDS011;53334;51.976;20.144;2023-05-13T13:44:42;2.50;;;2.30;;
36651;SDS011;53334;51.976;20.144;2023-05-13T13:47:17;2.72;;;2.53;;
36651;SDS011;53334;51.976;20.144;2023-05-13T13:49:50;2.75;;;2.47;;
36651;SDS011;53334;51.976;20.144;2023-05-13T13:52:23;2.67;;;2.47;;
36651;SDS011;53334;51.976;20.144;2023-05-13T13:54:59;2.80;;;2.50;;
36651;SDS011;53334;51.976;20.144;2023-05-13T13:57:32;2.92;;;2.65;;
36651;SDS011;53334;51.976;20.144;2023-05-13T14:00:06;3.13;;;2.75;;
36651;SDS011;53334;51.976;20.144;2023-05-13T14:02:41;2.88;;;2.55;;
36651;SDS011;53334;51.976;20.144;2023-05-13T14:05:15;2.65;;;2.45;;
36651;SDS011;53334;51.976;20.144;2023-05-13T14:07:49;2.95;;;2.65;;
36651;SDS011;53334;51.976;20.144;2023-05-13T14:10:24;2.58;;;2.38;;
36651;SDS011;53334;51.976;20.144;2023-05-13T14:12:57;2.60;;;2.40;;
36651;SDS011;53334;51.976;20.144;2023-05-13T14:15:31;2.55;;;2.35;;
36651;SDS011;53334;51.976;20.144;2023-05-13T14:18:11;2.65;;;2.45;;
36651;SDS011;53334;51.976;20.144;2023-05-13T14:20:44;2.97;;;2.63;;
36651;SDS011;53334;51.976;20.144;2023-05-13T14:23:18;3.20;;;2.78;;
36651;SDS011;53334;51.976;20.144;2023-05-13T14:25:51;2.60;;;2.40;;
36651;SDS011;53334;51.976;20.144;2023-05-13T14:28:25;3.28;;;2.97;;
36651;SDS011;53334;51.976;20.144;2023-05-13T14:30:58;2.72;;;2.53;;
36651;SDS011;53334;51.976;20.144;2023-05-13T14:33:32;3.67;;;3.10;;
36651;SDS011;53334;51.976;20.144;2023-05-13T14:36:06;2.58;;;2.38;;
36651;SDS011;53334;51.976;20.144;2023-05-13T14:38:41;2.85;;;2.65;;
36651;SDS011;53334;51.976;20.144;2023-05-13T14:41:14;2.97;;;2.78;;
36651;SDS011;53334;51.976;20.144;2023-05-13T14:43:50;2.30;;;2.10;;
36651;SDS011;53334;51.976;20.144;2023-05-13T14:46:23;3.20;;;2.60;;
36651;SDS011;53334;51.976;20.144;2023-05-13T14:48:58;3.15;;;2.85;;
36651;SDS011;53334;51.976;20.144;2023-05-13T14:51:31;2.60;;;2.22;;
36651;SDS011;53334;51.976;20.144;2023-05-13T14:54:04;3.13;;;2.40;;
36651;SDS011;53334;51.976;20.144;2023-05-13T14:56:38;2.40;;;2.20;;
36651;SDS011;53334;51.976;20.144;2023-05-13T14:59:12;2.65;;;2.42;;
36651;SDS011;53334;51.976;20.144;2023-05-13T15:01:45;2.63;;;2.42;;
36651;SDS011;53334;51.976;20.144;2023-05-13T15:04:20;3.55;;;2.97;;
36651;SDS011;53334;51.976;20.144;2023-05-13T15:06:53;3.00;;;2.65;;
36651;SDS011;53334;51.976;20.144;2023-05-13T15:09:27;3.08;;;2.63;;
36651;SDS011;53334;51.976;20.144;2023-05-13T15:12:00;4.90;;;2.40;;
36651;SDS011;53334;51.976;20.144;2023-05-13T15:14:33;2.60;;;2.40;;
36651;SDS011;53334;51.976;20.144;2023-05-13T15:17:06;2.60;;;2.38;;
36651;SDS011;53334;51.976;20.144;2023-05-13T15:19:43;2.45;;;2.17;;
36651;SDS011;53334;51.976;20.144;2023-05-13T15:22:17;2.58;;;2.38;;
36651;SDS011;53334;51.976;20.144;2023-05-13T15:24:50;2.58;;;2.38;;
36651;SDS011;53334;51.976;20.144;2023-05-13T15:27:24;3.05;;;2.75;;
36651;SDS011;53334;51.976;20.144;2023-05-13T15:29:58;2.67;;;2.45;;
36651;SDS011;53334;51.976;20.144;2023-05-13T15:32:31;2.83;;;2.55;;
36651;SDS011;53334;51.976;20.144;2023-05-13T15:35:07;2.70;;;2.47;;
36651;SDS011;53334;51.976;20.144;2023-05-13T15:37:40;2.90;;;2.65;;
36651;SDS011;53334;51.976;20.144;2023-05-13T15:40:14;2.80;;;2.35;;
36651;SDS011;53334;51.976;20.144;2023-05-13T15:42:47;2.70;;;2.50;;
36651;SDS011;53334;51.976;20.144;2023-05-13T15:45:20;2.45;;;2.25;;
36651;SDS011;53334;51.976;20.144;2023-05-13T15:47:54;2.72;;;2.53;;